createdAt,value
2023-01-03T00:02:00.661Z,86.50
2023-01-03T00:04:27.693Z,86.80
2023-01-03T00:06:54.609Z,86.70
2023-01-03T00:09:23.461Z,86.80
2023-01-03T00:12:10.501Z,86.70
2023-01-03T00:14:40.740Z,86.70
2023-01-03T00:17:08.583Z,86.70
2023-01-03T00:19:38.098Z,86.90
2023-01-03T00:22:05.148Z,87.10
2023-01-03T00:24:32.466Z,87.10
2023-01-03T00:26:59.228Z,87.00
2023-01-03T00:29:26.376Z,87.00
2023-01-03T00:31:53.189Z,87.00
2023-01-03T00:34:20.118Z,87.20
2023-01-03T00:36:46.848Z,87.30
2023-01-03T00:39:13.917Z,87.40
2023-01-03T00:41:41.005Z,87.10
2023-01-03T00:44:08.192Z,87.00
2023-01-03T00:46:35.899Z,87.10
2023-01-03T00:49:03.719Z,87.20
2023-01-03T00:51:32.611Z,87.30
2023-01-03T00:54:02.182Z,87.30
2023-01-03T00:56:34.798Z,87.40
2023-01-03T00:59:01.948Z,87.70
2023-01-03T01:01:46.217Z,87.90
2023-01-03T01:04:26.269Z,88.00
2023-01-03T01:06:55.989Z,87.90
2023-01-03T01:09:25.768Z,87.90
2023-01-03T01:11:52.947Z,88.10
2023-01-03T01:14:22.119Z,88.30
2023-01-03T01:17:01.061Z,88.50
2023-01-03T01:19:36.643Z,88.60
2023-01-03T01:22:03.884Z,88.60
2023-01-03T01:24:31.081Z,88.90
2023-01-03T01:26:57.972Z,89.00
2023-01-03T01:29:24.924Z,89.00
2023-01-03T01:31:51.647Z,89.00
2023-01-03T01:34:18.455Z,88.90
2023-01-03T01:36:46.364Z,89.00
2023-01-03T01:39:17.248Z,89.10
2023-01-03T01:42:04.435Z,89.00
2023-01-03T01:44:46.319Z,89.10
2023-01-03T01:47:38.198Z,89.10
2023-01-03T01:50:32.518Z,89.00
2023-01-03T01:53:19.407Z,89.90
2023-01-03T01:56:22.145Z,90.80
2023-01-03T01:58:51.232Z,91.00
2023-01-03T02:01:20.635Z,91.10
2023-01-03T02:03:55.388Z,91.10
2023-01-03T02:06:24.209Z,91.00
2023-01-03T02:08:50.921Z,91.10
2023-01-03T02:12:14.999Z,90.90
2023-01-03T02:14:50.709Z,90.60
2023-01-03T02:17:29.235Z,89.60
2023-01-03T02:20:18.159Z,88.80
2023-01-03T02:23:06.157Z,88.60
2023-01-03T02:26:06.202Z,88.30
2023-01-03T02:29:02.027Z,88.10
2023-01-03T02:31:56.077Z,87.20
2023-01-03T02:34:40.512Z,86.60
2023-01-03T02:37:43.629Z,86.60
2023-01-03T02:40:19.258Z,86.70
2023-01-03T02:42:58.805Z,86.90
2023-01-03T02:45:43.349Z,86.40
2023-01-03T02:48:18.963Z,86.70
2023-01-03T02:50:49.055Z,86.80
2023-01-03T02:53:21.954Z,86.80
2023-01-03T02:55:51.790Z,86.80
2023-01-03T02:58:23.239Z,86.90
2023-01-03T03:00:55.234Z,86.90
2023-01-03T03:03:28.720Z,86.90
2023-01-03T03:06:14.114Z,86.90
2023-01-03T03:08:44.666Z,86.80
2023-01-03T03:11:31.561Z,86.90
2023-01-03T03:14:28.092Z,86.90
2023-01-03T03:17:00.325Z,86.90
2023-01-03T03:19:55.049Z,87.10
2023-01-03T03:22:59.248Z,87.30
2023-01-03T03:25:44.556Z,87.50
2023-01-03T03:28:34.343Z,87.70
2023-01-03T03:31:10.278Z,87.80
2023-01-03T03:34:00.219Z,88.00
2023-01-03T03:36:40.220Z,87.90
2023-01-03T03:39:29.277Z,87.80
2023-01-03T03:42:20.559Z,87.90
2023-01-03T03:45:02.288Z,88.00
2023-01-03T03:47:45.689Z,88.10
2023-01-03T03:50:24.698Z,88.30
2023-01-03T03:52:57.178Z,88.30
2023-01-03T03:55:53.900Z,88.30
2023-01-03T03:58:25.551Z,88.10
2023-01-03T04:00:54.820Z,88.10
2023-01-03T04:03:22.340Z,88.20
2023-01-03T04:06:00.152Z,88.50
2023-01-03T04:08:26.920Z,88.50
2023-01-03T04:11:05.424Z,88.80
2023-01-03T04:13:37.156Z,89.00
2023-01-03T04:16:04.940Z,88.50
2023-01-03T04:18:31.780Z,88.20
2023-01-03T04:20:58.513Z,88.40
2023-01-03T04:23:25.703Z,88.40
2023-01-03T04:25:53.102Z,88.30
2023-01-03T04:28:20.014Z,87.90
2023-01-03T04:30:47.288Z,87.40
2023-01-03T04:33:14.063Z,87.60
2023-01-03T04:35:40.855Z,87.80
2023-01-03T04:38:08.650Z,87.70
2023-01-03T04:40:36.423Z,87.60
2023-01-03T04:43:21.692Z,88.00
2023-01-03T04:45:49.204Z,87.90
2023-01-03T04:48:16.892Z,88.00
2023-01-03T04:50:52.196Z,88.10
2023-01-03T04:53:19.069Z,88.30
2023-01-03T04:55:47.701Z,88.40
2023-01-03T04:58:14.448Z,88.40
2023-01-03T05:00:41.298Z,88.50
2023-01-03T05:03:08.182Z,88.30
2023-01-03T05:05:37.058Z,88.60
2023-01-03T05:08:05.147Z,88.70
2023-01-03T05:10:32.951Z,88.80
2023-01-03T05:13:00.674Z,88.70
2023-01-03T05:15:32.211Z,88.80
2023-01-03T05:17:58.970Z,88.40
2023-01-03T05:20:44.711Z,88.90
2023-01-03T05:23:34.894Z,89.00
2023-01-03T05:26:06.613Z,88.70
2023-01-03T05:28:33.851Z,88.40
2023-01-03T05:31:00.780Z,88.70
2023-01-03T05:33:28.255Z,89.00
2023-01-03T05:35:55.011Z,89.20
2023-01-03T05:38:23.755Z,88.80
2023-01-03T05:40:51.199Z,89.10
2023-01-03T05:43:18.152Z,89.50
2023-01-03T05:45:50.494Z,89.70
2023-01-03T05:48:17.552Z,90.10
2023-01-03T05:50:44.375Z,89.10
2023-01-03T05:53:11.072Z,89.30
2023-01-03T05:55:39.073Z,89.40
2023-01-03T05:58:07.355Z,89.60
2023-01-03T06:00:34.878Z,89.40
2023-01-03T06:03:01.822Z,89.20
2023-01-03T06:05:28.757Z,89.10
2023-01-03T06:07:55.589Z,89.10
2023-01-03T06:10:22.348Z,89.30
2023-01-03T06:12:49.240Z,89.10
2023-01-03T06:15:16.004Z,89.60
2023-01-03T06:17:54.775Z,90.00
2023-01-03T06:20:21.693Z,90.10
2023-01-03T06:22:48.518Z,90.20
2023-01-03T06:25:15.603Z,90.00
2023-01-03T06:27:42.373Z,90.40
2023-01-03T06:30:09.960Z,90.40
2023-01-03T06:32:36.721Z,90.30
2023-01-03T06:35:03.885Z,89.70
2023-01-03T06:37:30.682Z,90.40
2023-01-03T06:39:57.427Z,90.40
2023-01-03T06:42:39.452Z,90.50
2023-01-03T06:45:25.297Z,90.40
2023-01-03T06:48:10.493Z,90.80
2023-01-03T06:51:00.889Z,90.70
2023-01-03T06:53:33.193Z,90.80
2023-01-03T06:55:59.965Z,90.40
2023-01-03T06:58:27.066Z,90.50
2023-01-03T07:00:55.591Z,90.70
2023-01-03T07:03:22.980Z,91.90
2023-01-03T07:05:49.930Z,91.80
2023-01-03T07:08:16.677Z,90.40
2023-01-03T07:10:43.418Z,90.50
2023-01-03T07:13:28.763Z,89.70
2023-01-03T07:15:55.598Z,90.90
2023-01-03T07:18:22.430Z,91.50
2023-01-03T07:20:49.294Z,91.50
2023-01-03T07:23:16.024Z,91.50
2023-01-03T07:25:42.896Z,91.60
2023-01-03T07:28:14.523Z,91.70
2023-01-03T07:30:43.727Z,91.80
2023-01-03T07:33:12.093Z,92.30
2023-01-03T07:35:38.905Z,91.60
2023-01-03T07:38:07.021Z,91.30
2023-01-03T07:40:34.266Z,90.90
2023-01-03T07:43:19.512Z,91.40
2023-01-03T07:45:46.961Z,91.80
2023-01-03T07:48:14.226Z,92.20
2023-01-03T07:50:41.984Z,92.60
2023-01-03T07:53:09.558Z,92.00
2023-01-03T07:55:37.430Z,92.00
2023-01-03T07:58:04.632Z,92.10
2023-01-03T08:00:31.487Z,91.90
2023-01-03T08:02:58.422Z,91.70
2023-01-03T08:05:25.992Z,91.60
2023-01-03T08:07:53.318Z,91.70
2023-01-03T08:10:39.554Z,91.50
2023-01-03T08:13:17.613Z,91.20
2023-01-03T08:15:48.672Z,91.30
2023-01-03T08:18:20.424Z,90.60
2023-01-03T08:20:47.912Z,90.40
2023-01-03T08:23:14.864Z,90.70
2023-01-03T08:25:41.586Z,90.40
2023-01-03T08:28:09.695Z,90.20
2023-01-03T08:30:40.666Z,90.70
2023-01-03T08:33:12.011Z,90.70
2023-01-03T08:35:41.016Z,90.30
2023-01-03T08:38:11.752Z,90.70
2023-01-03T08:40:42.275Z,91.00
2023-01-03T08:43:10.841Z,91.20
2023-01-03T08:45:38.734Z,91.10
2023-01-03T08:48:06.937Z,91.30
2023-01-03T08:50:35.018Z,91.60
2023-01-03T08:53:03.914Z,91.40
2023-01-03T08:55:30.964Z,91.40
2023-01-03T08:57:59.784Z,91.60
2023-01-03T09:00:27.591Z,91.60
2023-01-03T09:02:57.465Z,91.70
2023-01-03T09:05:24.440Z,91.90
2023-01-03T09:07:51.323Z,91.90
2023-01-03T09:10:18.075Z,91.70
2023-01-03T09:12:44.834Z,91.70
2023-01-03T09:15:11.973Z,91.70
2023-01-03T09:17:42.152Z,91.50
2023-01-03T09:20:09.677Z,91.40
2023-01-03T09:22:36.463Z,91.00
2023-01-03T09:25:03.338Z,91.00
2023-01-03T09:27:30.211Z,91.10
2023-01-03T09:29:56.943Z,90.90
2023-01-03T09:32:23.678Z,90.70
2023-01-03T09:34:50.485Z,90.80
2023-01-03T09:37:17.235Z,90.90
2023-01-03T09:39:44.428Z,90.80
2023-01-03T09:42:38.985Z,90.80
2023-01-03T09:45:07.975Z,90.70
2023-01-03T09:47:38.124Z,90.40
2023-01-03T09:53:13.869Z,90.60
2023-01-03T09:56:13.257Z,90.30
2023-01-03T09:59:00.570Z,89.10
2023-01-03T10:01:52.291Z,89.10
2023-01-03T10:04:43.528Z,89.20
2023-01-03T10:07:40.910Z,88.80
2023-01-03T10:10:32.393Z,88.60
2023-01-03T10:13:20.260Z,88.50
2023-01-03T10:15:50.441Z,88.30
2023-01-03T10:18:32.513Z,88.20
2023-01-03T10:21:09.166Z,88.20
2023-01-03T10:23:35.979Z,87.80
2023-01-03T10:26:11.327Z,87.00
2023-01-03T10:28:41.349Z,86.90
2023-01-03T10:31:25.545Z,86.50
2023-01-03T10:33:52.405Z,85.80
2023-01-03T10:36:21.548Z,85.00
2023-01-03T10:38:52.898Z,85.20
2023-01-03T10:41:42.055Z,84.50
2023-01-03T10:44:28.802Z,83.70
2023-01-03T10:47:23.457Z,82.90
2023-01-03T10:49:50.209Z,83.30
2023-01-03T10:52:20.069Z,83.50
2023-01-03T10:55:02.081Z,82.80
2023-01-03T10:57:48.232Z,84.20
2023-01-03T11:00:31.613Z,84.30
2023-01-03T11:03:09.714Z,84.00
2023-01-03T11:05:38.109Z,83.00
2023-01-03T11:08:13.098Z,82.70
2023-01-03T11:10:57.982Z,82.60
2023-01-03T11:13:29.123Z,83.30
2023-01-03T11:16:01.402Z,83.70
2023-01-03T11:18:29.928Z,83.40
2023-01-03T11:21:01.961Z,83.60
2023-01-03T11:23:56.067Z,83.00
2023-01-03T11:26:22.720Z,82.30
2023-01-03T11:28:55.754Z,82.40
2023-01-03T11:31:59.939Z,81.80
2023-01-03T11:35:03.043Z,81.20
2023-01-03T11:37:34.888Z,78.80
2023-01-03T11:40:42.859Z,79.90
2023-01-03T11:43:44.664Z,79.80
2023-01-03T11:46:45.977Z,78.40
2023-01-03T11:49:26.175Z,78.70
2023-01-03T11:52:10.588Z,77.90
2023-01-03T11:54:53.178Z,77.20
2023-01-03T11:57:59.353Z,77.00
2023-01-03T12:00:36.729Z,77.00
2023-01-03T12:03:24.760Z,76.00
2023-01-03T12:05:54.087Z,75.50
2023-01-03T12:08:48.384Z,76.40
2023-01-03T12:11:35.064Z,75.20
2023-01-03T12:14:13.374Z,76.20
2023-01-03T12:16:47.301Z,77.90
2023-01-03T12:19:28.947Z,77.60
2023-01-03T12:22:03.349Z,76.70
2023-01-03T12:24:42.747Z,75.90
2023-01-03T12:27:18.081Z,76.70
2023-01-03T12:29:57.518Z,78.20
2023-01-03T12:32:46.811Z,78.60
2023-01-03T12:35:25.304Z,79.80
2023-01-03T12:37:52.910Z,80.60
2023-01-03T12:40:31.979Z,81.20
2023-01-03T12:43:08.632Z,81.40
2023-01-03T12:45:58.602Z,81.30
2023-01-03T12:48:35.283Z,80.10
2023-01-03T12:51:02.120Z,79.30
2023-01-03T12:53:47.260Z,78.10
2023-01-03T12:56:17.136Z,73.40
2023-01-03T12:59:06.767Z,71.60
2023-01-03T13:01:47.911Z,68.70
2023-01-03T13:04:24.057Z,68.40
2023-01-03T13:07:07.785Z,65.70
2023-01-03T13:09:43.814Z,62.00
2023-01-03T13:12:15.600Z,63.00
2023-01-03T13:15:03.765Z,65.70
2023-01-03T13:17:41.948Z,69.00
2023-01-03T13:20:14.579Z,71.60
2023-01-03T13:22:52.569Z,72.90
2023-01-03T13:25:39.970Z,74.30
2023-01-03T13:28:21.837Z,73.60
2023-01-03T13:30:48.774Z,71.00
2023-01-03T13:33:20.791Z,68.70
2023-01-03T13:35:47.724Z,63.20
2023-01-03T13:38:24.269Z,61.10
2023-01-03T13:43:49.990Z,55.90
2023-01-03T13:46:22.505Z,54.80
2023-01-03T13:48:58.951Z,52.90
2023-01-03T13:51:47.762Z,54.40
2023-01-03T13:54:17.552Z,56.70
2023-01-03T13:56:44.375Z,57.50
2023-01-03T13:59:13.878Z,56.30
2023-01-03T14:02:18.769Z,56.80
2023-01-03T14:05:12.575Z,54.90
2023-01-03T14:07:47.914Z,57.60
2023-01-03T14:10:29.735Z,59.50
2023-01-03T14:13:11.477Z,62.00
2023-01-03T14:15:38.472Z,67.40
2023-01-03T14:18:11.043Z,69.00
2023-01-03T14:20:39.607Z,69.70
2023-01-03T14:23:48.300Z,72.10
2023-01-03T14:26:05.343Z,73.50
2023-01-03T14:28:34.037Z,74.80
2023-01-03T14:31:06.485Z,74.80
2023-01-03T14:33:58.236Z,75.80
2023-01-03T14:36:27.864Z,76.30
2023-01-03T14:39:01.289Z,76.40
2023-01-03T14:41:32.434Z,76.60
2023-01-03T14:44:08.974Z,76.80
2023-01-03T14:46:36.930Z,77.20
2023-01-03T14:49:08.815Z,77.90
2023-01-03T14:51:37.137Z,78.20
2023-01-03T14:54:05.029Z,78.50
2023-01-03T14:56:32.214Z,79.00
2023-01-03T14:59:00.055Z,79.30
2023-01-03T15:01:28.699Z,79.50
2023-01-03T15:03:56.075Z,79.80
2023-01-03T15:06:22.824Z,79.80
2023-01-03T15:08:53.090Z,80.10
2023-01-03T15:11:24.594Z,80.00
2023-01-03T15:14:19.813Z,79.80
2023-01-03T15:16:46.682Z,80.10
2023-01-03T15:19:28.129Z,80.60
2023-01-03T15:22:12.505Z,80.30
2023-01-03T15:24:43.393Z,81.40
2023-01-03T15:27:32.967Z,82.10
2023-01-03T15:30:14.667Z,82.00
2023-01-03T15:32:57.998Z,82.40
2023-01-03T15:35:30.628Z,82.20
2023-01-03T15:37:59.840Z,82.30
2023-01-03T15:40:28.855Z,82.70
2023-01-03T15:43:14.012Z,83.20
2023-01-03T15:45:41.862Z,83.40
2023-01-03T15:48:14.564Z,84.40
2023-01-03T15:50:46.264Z,84.60
2023-01-03T15:53:30.088Z,85.80
2023-01-03T15:56:01.859Z,86.40
2023-01-03T15:58:30.617Z,86.70
2023-01-03T16:00:59.510Z,85.30
2023-01-03T16:03:30.754Z,84.70
2023-01-03T16:05:57.950Z,85.50
2023-01-03T16:08:27.389Z,85.70
2023-01-03T16:10:55.513Z,87.00
2023-01-03T16:13:24.595Z,86.80
2023-01-03T16:15:53.011Z,86.90
2023-01-03T16:18:35.792Z,87.30
2023-01-03T16:21:03.524Z,87.70
2023-01-03T16:23:31.781Z,88.40
2023-01-03T16:25:58.651Z,88.70
2023-01-03T16:28:26.600Z,88.00
2023-01-03T16:31:19.119Z,88.00
2023-01-03T16:33:47.760Z,88.60
2023-01-03T16:36:36.987Z,87.40
2023-01-03T16:39:25.183Z,88.40
2023-01-03T16:42:12.965Z,89.10
2023-01-03T16:44:41.037Z,89.00
2023-01-03T16:47:20.408Z,90.00
2023-01-03T16:50:01.171Z,90.40
2023-01-03T16:52:34.046Z,89.50
2023-01-03T16:55:14.706Z,89.80
2023-01-03T16:57:41.455Z,89.90
2023-01-03T17:00:23.320Z,89.30
2023-01-03T17:02:50.263Z,88.20
2023-01-03T17:05:17.452Z,88.80
2023-01-03T17:07:46.659Z,89.40
2023-01-03T17:10:32.124Z,89.60
2023-01-03T17:13:08.610Z,89.40
2023-01-03T17:15:40.146Z,89.60
2023-01-03T17:18:18.733Z,89.80
2023-01-03T17:20:45.684Z,90.00
2023-01-03T17:23:12.510Z,89.70
2023-01-03T17:25:40.126Z,89.70
2023-01-03T17:28:10.243Z,89.90
2023-01-03T17:30:38.059Z,89.10
2023-01-03T17:33:05.143Z,89.00
2023-01-03T17:35:31.922Z,89.60
2023-01-03T17:38:24.800Z,89.90
2023-01-03T17:40:48.538Z,90.20
2023-01-03T17:43:33.236Z,90.50
2023-01-03T17:46:23.819Z,90.60
2023-01-03T17:49:09.546Z,90.50
2023-01-03T17:51:36.558Z,90.10
2023-01-03T17:54:03.553Z,90.20
2023-01-03T17:56:31.231Z,90.80
2023-01-03T17:58:58.075Z,91.00
2023-01-03T18:01:24.979Z,90.90
2023-01-03T18:03:51.997Z,90.40
2023-01-03T18:06:22.649Z,90.20
2023-01-03T18:08:52.051Z,90.20
2023-01-03T18:11:21.880Z,90.30
2023-01-03T18:13:49.550Z,90.60
2023-01-03T18:16:20.912Z,91.20
2023-01-03T18:18:48.812Z,90.70
2023-01-03T18:21:27.926Z,90.10
2023-01-03T18:23:58.326Z,90.90
2023-01-03T18:26:35.329Z,90.30
2023-01-03T18:29:03.698Z,90.80
2023-01-03T18:31:31.079Z,90.90
2023-01-03T18:33:58.297Z,91.10
2023-01-03T18:36:28.281Z,91.10
2023-01-03T18:39:03.523Z,91.00
2023-01-03T18:41:32.483Z,91.10
2023-01-03T18:44:00.407Z,91.50
2023-01-03T18:46:27.895Z,91.70
2023-01-03T18:48:54.954Z,91.60
2023-01-03T18:51:24.863Z,91.30
2023-01-03T18:53:56.598Z,90.70
2023-01-03T18:56:31.294Z,90.10
2023-01-03T18:59:15.292Z,89.60
2023-01-03T19:01:42.210Z,90.30
2023-01-03T19:04:09.548Z,90.30
2023-01-03T19:06:42.204Z,91.00
2023-01-03T19:09:36.008Z,91.70
2023-01-03T19:12:02.660Z,91.70
2023-01-03T19:14:29.900Z,91.50
2023-01-03T19:16:56.672Z,91.80
2023-01-03T19:19:23.417Z,91.10
2023-01-03T19:21:50.267Z,91.10
2023-01-03T19:24:39.248Z,91.50
2023-01-03T19:27:07.919Z,91.30
2023-01-03T19:29:37.661Z,91.40
2023-01-03T19:32:10.823Z,91.30
2023-01-03T19:34:37.731Z,91.50
2023-01-03T19:37:04.454Z,91.60
2023-01-03T19:39:37.137Z,91.70
2023-01-03T19:42:24.580Z,91.60
2023-01-03T19:44:55.173Z,91.00
2023-01-03T19:47:22.115Z,91.00
2023-01-03T19:49:49.002Z,90.90
2023-01-03T19:52:16.940Z,90.70
2023-01-03T19:54:44.165Z,91.20
2023-01-03T19:57:27.272Z,91.10
2023-01-03T19:59:57.796Z,91.20
2023-01-03T20:02:41.951Z,91.10
2023-01-03T20:05:24.716Z,91.20
2023-01-03T20:07:52.498Z,90.90
2023-01-03T20:10:24.579Z,91.00
2023-01-03T20:12:57.053Z,91.20
2023-01-03T20:15:32.862Z,91.10
2023-01-03T20:17:59.790Z,91.30
2023-01-03T20:20:33.571Z,91.20
2023-01-03T20:23:07.705Z,91.10
2023-01-03T20:25:36.916Z,91.50
2023-01-03T20:28:03.958Z,91.50
2023-01-03T20:30:32.812Z,91.50
2023-01-03T20:32:59.942Z,91.00
2023-01-03T20:38:20.809Z,90.90
2023-01-03T20:40:47.542Z,91.40
2023-01-03T20:43:15.318Z,91.60
2023-01-03T20:45:42.304Z,91.70
2023-01-03T20:48:18.051Z,91.50
2023-01-03T20:50:50.229Z,91.40
2023-01-03T20:53:19.979Z,91.50
2023-01-03T20:55:47.774Z,91.70
2023-01-03T20:58:24.989Z,91.70
2023-01-03T21:00:54.511Z,91.50
2023-01-03T21:03:25.387Z,91.40
2023-01-03T21:05:54.789Z,91.70
2023-01-03T21:08:40.293Z,91.80
2023-01-03T21:11:07.002Z,91.40
2023-01-03T21:13:33.802Z,91.20
2023-01-03T21:16:00.633Z,91.20
2023-01-03T21:18:27.634Z,91.20
2023-01-03T21:20:54.371Z,91.10
2023-01-03T21:23:23.581Z,90.60
2023-01-03T21:25:50.607Z,90.80
2023-01-03T21:28:17.345Z,90.80
2023-01-03T21:30:44.110Z,90.80
2023-01-03T21:33:17.087Z,91.40
2023-01-03T21:35:44.347Z,91.10
2023-01-03T21:38:12.506Z,91.00
2023-01-03T21:40:39.295Z,90.90
2023-01-03T21:43:06.220Z,91.00
2023-01-03T21:45:33.010Z,91.00
2023-01-03T21:48:01.000Z,90.80
2023-01-03T21:50:28.182Z,91.30
2023-01-03T21:52:55.120Z,91.80
2023-01-03T21:55:22.964Z,91.60
2023-01-03T21:57:50.159Z,91.60
2023-01-03T22:00:18.039Z,91.90
2023-01-03T22:03:04.409Z,91.80
2023-01-03T22:05:31.795Z,91.90
2023-01-03T22:08:00.526Z,91.80
2023-01-03T22:10:30.645Z,91.60
2023-01-03T22:13:03.798Z,91.60
2023-01-03T22:15:30.836Z,91.00
2023-01-03T22:17:57.746Z,91.10
2023-01-03T22:20:26.371Z,91.30
2023-01-03T22:22:53.853Z,91.10
2023-01-03T22:25:23.418Z,91.10
2023-01-03T22:27:53.297Z,91.50
2023-01-03T22:30:20.821Z,91.90
2023-01-03T22:32:48.012Z,92.30
2023-01-03T22:35:16.604Z,92.10
2023-01-03T22:37:43.378Z,91.90
2023-01-03T22:40:15.128Z,91.90
2023-01-03T22:42:42.031Z,91.90
2023-01-03T22:45:10.350Z,92.30
2023-01-03T22:47:37.851Z,92.30
2023-01-03T22:50:05.964Z,92.10
2023-01-03T22:52:32.905Z,92.10
2023-01-03T22:54:59.683Z,92.00
2023-01-03T22:57:26.608Z,91.60
2023-01-03T22:59:53.436Z,91.80
2023-01-03T23:02:26.208Z,92.00
2023-01-03T23:04:55.409Z,92.30
2023-01-03T23:07:22.189Z,92.20
2023-01-03T23:09:48.947Z,92.20
2023-01-03T23:12:51.051Z,91.90
2023-01-03T23:15:17.824Z,92.30
2023-01-03T23:17:56.928Z,92.10
2023-01-03T23:20:28.438Z,92.30
2023-01-03T23:23:00.017Z,92.50
2023-01-03T23:25:27.093Z,92.60
2023-01-03T23:27:53.822Z,92.70
2023-01-03T23:30:20.568Z,92.80
2023-01-03T23:32:47.317Z,92.80
2023-01-03T23:35:14.215Z,93.20
2023-01-03T23:37:41.040Z,93.50
2023-01-03T23:40:08.847Z,93.30
2023-01-03T23:42:35.631Z,93.30
2023-01-03T23:45:02.466Z,93.50
2023-01-03T23:47:29.350Z,93.60
2023-01-03T23:49:56.085Z,93.80
2023-01-03T23:52:22.855Z,93.80
2023-01-03T23:54:54.670Z,93.70
2023-01-03T23:57:24.800Z,93.80
2023-01-03T23:59:51.519Z,93.80
